Time;durP1;ratioP1;P1;durP2;ratioP2;P2;SDS_P1;SDS_P2;PMS_P1;PMS_P2;Temp;Humidity;BMP_temperature;BMP_pressure;BME280_temperature;BME280_humidity;BME280_pressure;Samples;Min_cycle;Max_cycle;Signal;HPM_P1;HPM_P2
2023/01/17 00:01:58;;;;;;;;;5.00;5.00;;;;;7.30;69.84;-19406.44;4950347;28;46386;-86
2023/01/17 00:09:57;;;;;;;;;7.33;5.33;;;;;7.28;70.48;-19406.03;4972890;28;45465;-86
2023/01/17 00:12:25;;;;;;;;;5.50;5.50;;;;;7.58;70.39;-19414.03;4972802;28;47233;-86
2023/01/17 00:14:53;;;;;;;;;3.00;3.00;;;;;7.22;70.83;-19406.22;4963892;28;45374;-85
2023/01/17 00:17:18;;;;;;;;;5.33;5.00;;;;;7.58;71.24;-19415.81;4958373;28;45476;-85
2023/01/17 01:34:17;;;;;;;;;6.33;6.00;;;;;7.08;72.08;-19400.63;4970858;28;45506;-86
2023/01/17 01:36:42;;;;;;;;;7.33;5.00;;;;;6.66;72.15;-19389.66;4961261;28;46178;-85
2023/01/17 01:39:08;;;;;;;;;9.67;7.33;;;;;6.60;72.13;-19387.91;4972599;28;45365;-83
2023/01/17 01:41:33;;;;;;;;;6.00;6.00;;;;;6.91;72.18;-19398.22;4974961;28;45643;-83
2023/01/17 01:43:59;;;;;;;;;7.33;6.00;;;;;6.99;72.28;-19400.25;4975103;28;45431;-83
2023/01/17 01:46:29;;;;;;;;;5.33;4.00;;;;;6.98;72.68;-19399.97;4960856;28;46062;-83
2023/01/17 01:49:23;;;;;;;;;7.67;6.00;;;;;6.96;72.66;-19399.56;4971535;28;45453;-83
2023/01/17 01:51:57;;;;;;;;;7.33;7.33;;;;;7.00;72.56;-19400.53;4960629;28;45783;-83
2023/01/17 01:54:35;;;;;;;;;8.67;6.67;;;;;7.02;72.67;-19401.06;4971522;28;45570;-83
2023/01/17 01:57:03;;;;;;;;;6.33;5.00;;;;;6.82;72.37;-19395.78;4966152;28;47268;-83
2023/01/17 01:59:31;;;;;;;;;9.00;6.00;;;;;7.02;72.39;-19400.94;4957005;28;45834;-83
2023/01/17 02:01:59;;;;;;;;;10.67;7.33;;;;;7.01;72.45;-19400.66;4974650;28;45396;-83
2023/01/17 02:04:27;;;;;;;;;6.33;5.00;;;;;7.01;71.88;-19400.66;4974405;28;45624;-83
2023/01/17 02:07:02;;;;;;;;;5.33;4.00;;;;;7.01;72.43;-19400.66;4974382;28;45633;-83
2023/01/17 02:09:28;;;;;;;;;6.00;5.67;;;;;6.83;72.09;-19395.91;4974562;28;45647;-83
2023/01/17 02:11:53;;;;;;;;;6.00;5.00;;;;;6.77;72.93;-19394.44;4974667;28;45432;-83
2023/01/17 02:14:21;;;;;;;;;6.67;6.00;;;;;6.67;72.51;-19391.72;4956890;28;45425;-83
2023/01/17 02:16:52;;;;;;;;;8.67;5.67;;;;;6.96;72.24;-19399.56;4956009;28;46081;-83
2023/01/17 02:19:42;;;;;;;;;5.67;4.67;;;;;6.33;72.72;-19382.78;4960110;28;45419;-83
2023/01/17 02:22:26;;;;;;;;;8.00;5.33;;;;;6.98;72.19;-19399.97;4969645;28;45453;-83
2023/01/17 02:25:10;;;;;;;;;6.33;5.33;;;;;6.96;72.16;-19399.56;4970650;28;45685;-83
2023/01/17 02:27:57;;;;;;;;;4.33;4.33;;;;;6.94;72.27;-19399.03;4956475;28;46150;-83
2023/01/17 02:30:35;;;;;;;;;6.00;6.00;;;;;6.91;72.12;-19398.09;4955843;28;45854;-83
2023/01/17 02:33:32;;;;;;;;;7.33;7.33;;;;;6.85;72.51;-19396.59;4945116;28;45555;-83
2023/01/17 02:36:05;;;;;;;;;6.00;6.00;;;;;6.89;72.38;-19397.53;4969227;28;45692;-83
2023/01/17 02:38:50;;;;;;;;;5.67;5.67;;;;;6.85;72.26;-19396.47;4952571;28;47595;-83
2023/01/17 02:41:29;;;;;;;;;6.00;6.00;;;;;6.87;72.59;-19397.00;4955092;28;45498;-84
2023/01/17 02:43:55;;;;;;;;;7.00;6.00;;;;;6.86;72.67;-19396.72;4966478;28;45852;-83
2023/01/17 02:46:20;;;;;;;;;5.00;5.00;;;;;6.87;73.00;-19397.00;4972144;28;45494;-83
2023/01/17 02:48:48;;;;;;;;;6.67;5.33;;;;;6.49;72.64;-19387.13;4974278;28;45740;-83
2023/01/17 02:51:25;;;;;;;;;7.67;6.00;;;;;6.84;72.97;-19396.19;4965334;28;45520;-83
2023/01/17 02:54:27;;;;;;;;;8.00;6.33;;;;;6.69;72.51;-19392.25;4963412;28;45430;-83
2023/01/17 02:57:04;;;;;;;;;10.00;7.33;;;;;6.88;72.81;-19397.28;4957692;28;45440;-83
2023/01/17 02:59:48;;;;;;;;;9.00;9.00;;;;;6.87;72.82;-19397.13;4961721;28;47346;-83
2023/01/17 03:02:56;;;;;;;;;9.00;5.00;;;;;6.86;72.55;-19396.72;4972700;28;45599;-83
2023/01/17 03:05:30;;;;;;;;;9.33;8.00;;;;;6.80;72.44;-19395.09;4962967;28;45880;-83
2023/01/17 03:07:57;;;;;;;;;7.33;7.33;;;;;6.62;72.39;-19390.50;4962932;28;45521;-83
2023/01/17 03:10:23;;;;;;;;;12.33;9.00;;;;;6.67;72.58;-19391.72;4973367;28;46421;-83
2023/01/17 03:12:49;;;;;;;;;8.67;8.00;;;;;6.82;72.82;-19395.78;4963861;28;45429;-83
2023/01/17 03:15:16;;;;;;;;;12.00;9.00;;;;;6.55;72.61;-19388.59;4973099;28;45463;-83
2023/01/17 03:17:47;;;;;;;;;8.00;8.00;;;;;6.81;72.79;-19395.38;4974099;28;45374;-83
2023/01/17 03:20:12;;;;;;;;;9.33;9.00;;;;;6.64;72.89;-19391.03;4973504;28;45429;-83
2023/01/17 03:22:38;;;;;;;;;7.00;7.00;;;;;6.48;73.16;-19386.72;4973203;28;45457;-83
2023/01/17 03:25:04;;;;;;;;;10.00;9.67;;;;;6.81;72.71;-19395.50;4955943;28;45378;-83
2023/01/17 03:27:30;;;;;;;;;9.33;9.33;;;;;6.79;72.73;-19394.97;4974455;28;45640;-83
2023/01/17 03:29:56;;;;;;;;;11.00;7.00;;;;;6.80;73.23;-19395.25;4972200;28;45795;-83
2023/01/17 03:32:21;;;;;;;;;11.00;9.00;;;;;6.79;73.18;-19394.97;4972878;28;45438;-83
2023/01/17 03:34:46;;;;;;;;;8.67;7.67;;;;;6.78;73.04;-19394.69;4973262;28;45426;-83
2023/01/17 03:37:12;;;;;;;;;10.67;10.67;;;;;6.76;73.08;-19394.28;4973685;28;45605;-83
2023/01/17 03:39:37;;;;;;;;;7.00;5.67;;;;;6.80;73.27;-19395.09;4955822;28;47155;-85
2023/01/17 03:42:02;;;;;;;;;7.00;7.00;;;;;6.60;72.96;-19389.97;4973223;28;45429;-85
2023/01/17 03:44:28;;;;;;;;;8.33;6.00;;;;;6.79;72.93;-19394.84;4973204;28;45498;-86
2023/01/17 03:46:53;;;;;;;;;14.00;6.33;;;;;6.79;72.92;-19394.97;4973050;28;45476;-86
2023/01/17 03:49:18;;;;;;;;;11.67;10.00;;;;;6.82;73.48;-19395.66;4972841;28;46558;-85
2023/01/17 03:51:44;;;;;;;;;9.00;7.00;;;;;6.26;73.44;-19381.03;4955841;28;45497;-85
2023/01/17 03:54:09;;;;;;;;;13.00;11.00;;;;;6.72;73.14;-19393.06;4972992;28;45413;-85
2023/01/17 03:56:34;;;;;;;;;13.00;9.67;;;;;6.83;73.65;-19395.91;4973039;28;45558;-85
2023/01/17 03:59:00;;;;;;;;;7.33;7.33;;;;;6.76;73.85;-19394.16;4955296;28;47109;-85
2023/01/17 04:01:25;;;;;;;;;7.33;7.33;;;;;6.32;73.60;-19382.50;4972903;28;45381;-85
2023/01/17 04:03:51;;;;;;;;;9.00;7.33;;;;;6.85;73.49;-19396.59;4941828;28;45686;-85
2023/01/17 04:06:16;;;;;;;;;6.00;6.00;;;;;6.67;73.49;-19391.84;4973610;28;45445;-85
2023/01/17 04:08:41;;;;;;;;;10.67;9.33;;;;;6.91;73.38;-19398.09;4973019;28;46162;-85
2023/01/17 04:11:07;;;;;;;;;9.33;8.33;;;;;6.92;73.22;-19398.34;4955825;28;45443;-86
2023/01/17 04:13:32;;;;;;;;;10.00;9.00;;;;;6.92;73.33;-19398.34;4975789;28;45811;-86
2023/01/17 04:15:58;;;;;;;;;10.00;9.00;;;;;6.91;73.66;-19398.09;4965881;28;45488;-84
2023/01/17 04:18:24;;;;;;;;;8.33;8.33;;;;;6.93;73.84;-19398.63;4956933;28;47041;-85
2023/01/17 04:20:49;;;;;;;;;16.00;11.67;;;;;6.95;73.65;-19399.31;4974906;28;45383;-86
2023/01/17 04:23:15;;;;;;;;;11.67;10.00;;;;;6.96;73.55;-19399.44;4948135;28;45545;-85
2023/01/17 04:25:40;;;;;;;;;11.67;10.00;;;;;6.96;73.39;-19399.56;4976127;28;45840;-85
2023/01/17 04:28:06;;;;;;;;;11.00;11.00;;;;;6.95;73.72;-19399.31;4975525;28;45892;-85
2023/01/17 04:30:32;;;;;;;;;13.00;13.00;;;;;6.84;73.50;-19396.31;4975741;28;45429;-86
2023/01/17 04:32:58;;;;;;;;;12.33;12.33;;;;;6.73;73.49;-19393.47;4966603;28;45829;-86
2023/01/17 04:35:24;;;;;;;;;15.67;13.00;;;;;6.83;73.65;-19396.06;4950101;28;45505;-85
2023/01/17 04:37:50;;;;;;;;;12.33;12.33;;;;;6.93;73.66;-19398.75;4974910;28;46356;-86
2023/01/17 04:40:16;;;;;;;;;10.00;10.00;;;;;6.60;73.40;-19389.97;4975313;28;45695;-85
2023/01/17 04:42:45;;;;;;;;;12.33;11.67;;;;;6.28;73.60;-19381.44;4975413;28;45461;-85
2023/01/17 04:45:11;;;;;;;;;13.67;12.67;;;;;6.95;73.25;-19399.31;4975746;28;45415;-86
2023/01/17 04:47:36;;;;;;;;;17.00;12.67;;;;;6.87;73.61;-19397.13;4975496;28;46316;-85
2023/01/17 04:50:02;;;;;;;;;18.33;16.67;;;;;6.93;73.33;-19398.75;4975211;28;45388;-85
2023/01/17 04:52:27;;;;;;;;;12.67;12.00;;;;;6.94;73.22;-19398.91;4974808;28;45410;-85
2023/01/17 04:54:53;;;;;;;;;16.67;13.33;;;;;6.94;73.34;-19398.91;4974881;28;45792;-85
2023/01/17 04:57:19;;;;;;;;;10.33;10.00;;;;;6.67;73.41;-19391.84;4975155;28;46158;-85
2023/01/17 04:59:45;;;;;;;;;18.00;14.67;;;;;6.97;73.44;-19399.72;4975320;28;45705;-85
2023/01/17 05:02:11;;;;;;;;;14.33;13.67;;;;;6.96;73.62;-19399.56;4964659;28;45563;-85
2023/01/17 05:04:36;;;;;;;;;15.67;15.00;;;;;6.55;73.47;-19388.75;4975611;28;45427;-85
2023/01/17 05:07:02;;;;;;;;;12.00;12.00;;;;;6.98;73.55;-19399.97;4971023;28;46037;-85
2023/01/17 05:09:27;;;;;;;;;16.33;13.00;;;;;6.97;73.42;-19399.84;4968378;28;45446;-85
2023/01/17 05:11:54;;;;;;;;;13.33;11.67;;;;;6.61;73.26;-19390.22;4973411;28;45413;-85
2023/01/17 05:14:20;;;;;;;;;17.00;15.00;;;;;6.95;73.64;-19399.16;4975191;28;45522;-85
2023/01/17 05:16:45;;;;;;;;;16.67;16.00;;;;;6.55;73.14;-19388.75;4966456;28;46066;-85
2023/01/17 05:19:10;;;;;;;;;16.33;14.00;;;;;6.74;73.08;-19393.75;4955901;28;45635;-85
2023/01/17 05:21:36;;;;;;;;;14.00;14.00;;;;;6.20;73.41;-19379.25;4964853;28;45522;-85
2023/01/17 05:24:02;;;;;;;;;16.67;16.33;;;;;6.84;72.93;-19396.31;4974458;28;45489;-85
2023/01/17 05:26:27;;;;;;;;;10.00;5.67;;;;;6.89;73.47;-19397.69;4974422;28;46283;-85
2023/01/17 05:28:52;;;;;;;;;16.33;16.33;;;;;6.61;73.29;-19390.09;4974458;28;45502;-85
2023/01/17 05:31:18;;;;;;;;;20.67;16.67;;;;;6.89;73.55;-19397.69;4974900;28;45546;-85
2023/01/17 05:33:44;;;;;;;;;18.33;15.00;;;;;6.74;73.49;-19393.63;4975397;28;45453;-86
2023/01/17 05:36:09;;;;;;;;;18.33;14.33;;;;;6.42;73.50;-19385.09;4974655;28;46044;-89
2023/01/17 05:38:34;;;;;;;;;17.00;15.00;;;;;6.45;73.69;-19386.03;4958663;28;45805;-87
2023/01/17 05:41:00;;;;;;;;;12.00;12.00;;;;;6.79;73.92;-19394.84;4957412;28;45521;-86
2023/01/17 05:43:27;;;;;;;;;18.33;17.00;;;;;6.46;73.67;-19386.16;4975206;28;45466;-87
2023/01/17 05:45:52;;;;;;;;;17.33;17.33;;;;;6.87;73.85;-19397.13;4972138;28;45938;-86
2023/01/17 05:48:18;;;;;;;;;16.00;14.33;;;;;6.62;73.63;-19390.50;4975451;28;45304;-84
2023/01/17 05:50:43;;;;;;;;;17.00;14.00;;;;;6.75;73.61;-19394.03;4972823;28;45446;-84
2023/01/17 05:53:11;;;;;;;;;15.67;14.33;;;;;6.60;73.59;-19389.81;4988782;28;45503;-86
2023/01/17 05:55:38;;;;;;;;;18.33;15.00;;;;;6.78;73.63;-19394.56;4980286;28;47089;-86
2023/01/17 05:58:04;;;;;;;;;16.00;14.00;;;;;6.86;73.53;-19396.88;4969750;28;46869;-87
2023/01/17 06:00:30;;;;;;;;;18.33;16.00;;;;;6.87;73.63;-19397.00;4976182;28;45485;-87
2023/01/17 06:02:57;;;;;;;;;15.33;15.33;;;;;6.71;73.27;-19392.81;4985835;28;45487;-87
2023/01/17 06:05:24;;;;;;;;;16.33;15.67;;;;;5.91;73.60;-19371.66;4984328;28;48001;-86
2023/01/17 06:07:50;;;;;;;;;13.67;13.67;;;;;6.38;73.61;-19384.13;4976597;28;45919;-86
2023/01/17 06:10:17;;;;;;;;;15.33;13.00;;;;;6.94;73.68;-19399.03;4992992;28;45586;-88
2023/01/17 06:12:44;;;;;;;;;15.67;14.00;;;;;6.96;73.45;-19399.44;4975992;27;45535;-89
2023/01/17 06:15:10;;;;;;;;;18.33;16.33;;;;;6.43;73.30;-19385.50;4979999;28;46304;-88
2023/01/17 06:17:36;;;;;;;;;16.00;14.00;;;;;7.03;73.81;-19401.34;4989957;28;45476;-87
2023/01/17 06:20:02;;;;;;;;;20.00;15.33;;;;;6.48;73.64;-19386.72;4969248;28;45414;-88
2023/01/17 06:22:28;;;;;;;;;14.33;12.67;;;;;6.82;73.58;-19395.66;4983739;28;45499;-88
2023/01/17 06:24:54;;;;;;;;;18.00;16.67;;;;;7.16;73.48;-19404.72;4985752;28;46364;-88
2023/01/17 06:27:19;;;;;;;;;17.00;16.33;;;;;6.73;72.95;-19393.47;4982114;28;45513;-87
2023/01/17 06:29:45;;;;;;;;;15.33;11.67;;;;;6.99;73.41;-19400.25;4981039;28;45743;-86
2023/01/17 06:32:12;;;;;;;;;15.00;13.33;;;;;7.22;73.63;-19406.22;4987481;27;45492;-87
2023/01/17 06:34:37;;;;;;;;;16.67;16.67;;;;;6.86;73.15;-19396.72;4977081;28;45346;-85
2023/01/17 06:37:02;;;;;;;;;13.67;11.67;;;;;7.13;73.44;-19404.03;4987397;28;45435;-85
2023/01/17 06:39:28;;;;;;;;;18.00;15.00;;;;;6.91;73.43;-19398.09;4976452;28;45429;-84
2023/01/17 06:41:53;;;;;;;;;21.00;18.67;;;;;7.21;73.02;-19406.06;4983069;28;45624;-85
2023/01/17 06:44:19;;;;;;;;;14.00;14.00;;;;;7.22;73.08;-19406.34;4975221;28;46175;-85
2023/01/17 06:46:46;;;;;;;;;16.67;16.00;;;;;7.24;73.29;-19406.88;4967367;28;45898;-86
2023/01/17 06:49:11;;;;;;;;;20.00;16.33;;;;;7.26;73.20;-19407.44;4980004;27;45476;-86
2023/01/17 06:51:37;;;;;;;;;13.33;13.33;;;;;7.24;73.18;-19406.88;4975161;28;45581;-85
2023/01/17 06:54:02;;;;;;;;;17.00;14.00;;;;;7.24;73.23;-19406.75;4978443;28;45492;-86
2023/01/17 06:56:30;;;;;;;;;16.33;16.33;;;;;7.32;72.90;-19408.91;4978768;28;45329;-85
2023/01/17 06:58:55;;;;;;;;;18.33;14.67;;;;;7.16;73.09;-19404.88;4981475;28;45548;-86
2023/01/17 07:01:21;;;;;;;;;16.67;15.00;;;;;7.18;72.96;-19405.25;4995932;28;45503;-86
2023/01/17 07:03:46;;;;;;;;;24.00;22.00;;;;;7.36;72.69;-19410.00;5001851;28;45898;-86
2023/01/17 07:06:12;;;;;;;;;23.67;22.00;;;;;7.02;72.60;-19400.94;4987759;28;45532;-86
2023/01/17 07:08:37;;;;;;;;;18.67;16.67;;;;;6.99;72.84;-19400.25;4981673;28;45502;-86
2023/01/17 07:11:06;;;;;;;;;16.33;14.67;;;;;7.16;72.76;-19404.72;4989988;28;45662;-86
2023/01/17 07:13:36;;;;;;;;;13.67;13.67;;;;;6.99;72.38;-19400.25;4990238;28;45896;-86
2023/01/17 07:16:03;;;;;;;;;18.00;15.67;;;;;7.36;72.31;-19410.13;4988758;28;45656;-86
2023/01/17 07:18:29;;;;;;;;;20.33;18.00;;;;;6.85;72.12;-19396.59;4983734;28;45514;-85
2023/01/17 07:20:54;;;;;;;;;22.00;17.33;;;;;7.38;72.44;-19410.53;4973800;28;45472;-86
2023/01/17 07:23:21;;;;;;;;;22.00;16.33;;;;;7.36;72.21;-19410.13;4975303;28;46688;-86
2023/01/17 07:25:55;;;;;;;;;22.33;16.67;;;;;7.35;72.27;-19409.88;4985190;28;45768;-85
2023/01/17 07:28:21;;;;;;;;;18.67;15.33;;;;;7.34;71.96;-19409.59;4973153;28;45470;-86
2023/01/17 07:30:48;;;;;;;;;18.33;16.00;;;;;7.26;71.92;-19407.28;4972563;28;46050;-85
2023/01/17 07:33:13;;;;;;;;;17.33;14.33;;;;;7.32;72.30;-19409.06;4975173;28;45508;-87
2023/01/17 07:35:39;;;;;;;;;20.00;19.00;;;;;6.32;72.27;-19382.50;4972783;28;45502;-86
2023/01/17 07:38:04;;;;;;;;;20.33;18.67;;;;;7.13;72.11;-19404.03;4955788;28;45410;-85
2023/01/17 07:40:30;;;;;;;;;13.67;10.67;;;;;7.38;72.21;-19410.69;4967954;28;45520;-86
2023/01/17 07:43:00;;;;;;;;;20.00;19.00;;;;;7.28;71.91;-19407.84;4983356;28;46033;-86
2023/01/17 07:45:26;;;;;;;;;20.00;18.33;;;;;7.27;71.93;-19407.69;4976249;28;45440;-86
2023/01/17 07:47:51;;;;;;;;;18.00;17.00;;;;;7.35;72.47;-19409.88;4973034;28;45367;-86
2023/01/17 07:50:17;;;;;;;;;30.75;30.50;;;;;7.36;72.41;-19410.00;4973352;28;45393;-86
2023/01/17 07:52:42;;;;;;;;;23.33;18.33;;;;;6.48;72.33;-19386.84;4971972;28;45558;-85
2023/01/17 07:55:08;;;;;;;;;20.33;19.33;;;;;7.02;72.41;-19400.94;4979495;28;45524;-86
2023/01/17 07:57:35;;;;;;;;;27.25;26.25;;;;;7.17;72.38;-19405.00;4980420;28;45346;-85
2023/01/17 08:00:01;;;;;;;;;20.67;17.33;;;;;7.38;71.84;-19410.69;4985581;28;45372;-85
2023/01/17 08:02:26;;;;;;;;;20.67;17.67;;;;;7.41;71.94;-19411.34;4980568;28;46188;-86
2023/01/17 08:04:51;;;;;;;;;21.00;15.67;;;;;7.43;71.99;-19411.75;4972322;28;45365;-85
2023/01/17 08:07:17;;;;;;;;;13.00;11.33;;;;;7.44;71.70;-19412.16;4972394;28;45374;-86
2023/01/17 08:09:43;;;;;;;;;15.33;13.00;;;;;7.43;71.90;-19411.75;4973455;28;45396;-85
2023/01/17 08:12:09;;;;;;;;;13.00;13.00;;;;;7.43;71.63;-19411.75;4974077;28;47586;-85
2023/01/17 08:14:35;;;;;;;;;16.67;12.33;;;;;7.21;71.64;-19406.06;4972173;28;45530;-85
2023/01/17 08:17:15;;;;;;;;;34.00;30.75;;;;;7.42;71.73;-19411.50;4973066;28;45625;-86
2023/01/17 08:19:40;;;;;;;;;19.33;14.33;;;;;7.40;71.60;-19411.09;4955311;28;45370;-85
2023/01/17 08:22:06;;;;;;;;;17.00;13.00;;;;;7.39;71.87;-19410.81;4972365;28;45778;-85
2023/01/17 08:24:32;;;;;;;;;15.33;13.33;;;;;7.40;71.82;-19411.09;4971986;28;45435;-85
2023/01/17 08:26:57;;;;;;;;;19.67;18.00;;;;;7.40;72.13;-19411.09;4972681;28;45443;-85
2023/01/17 08:29:23;;;;;;;;;20.67;17.67;;;;;7.41;72.12;-19411.34;4972739;28;45495;-86
2023/01/17 08:31:49;;;;;;;;;22.67;20.67;;;;;7.40;71.66;-19411.09;4972589;28;45525;-86
2023/01/17 08:34:14;;;;;;;;;22.00;19.33;;;;;7.03;71.81;-19401.34;4972421;28;45469;-85
2023/01/17 08:36:41;;;;;;;;;18.67;16.33;;;;;6.81;71.82;-19395.38;4972523;28;46000;-85
2023/01/17 08:39:07;;;;;;;;;24.33;22.67;;;;;6.79;71.99;-19394.84;4972480;28;45382;-85
2023/01/17 08:41:33;;;;;;;;;24.67;21.33;;;;;7.33;71.79;-19409.19;4972384;28;46146;-85
2023/01/17 08:43:58;;;;;;;;;22.33;21.67;;;;;7.38;71.84;-19410.53;4976874;28;45521;-86
2023/01/17 08:46:23;;;;;;;;;20.33;20.00;;;;;7.38;71.58;-19410.53;4972240;28;45464;-86
2023/01/17 08:48:57;;;;;;;;;19.67;18.00;;;;;7.16;72.05;-19404.88;4972695;28;45785;-85
2023/01/17 08:51:25;;;;;;;;;30.67;24.33;;;;;7.36;71.88;-19410.00;4971728;28;47344;-86
2023/01/17 08:53:51;;;;;;;;;22.00;19.67;;;;;7.37;72.29;-19410.28;4972263;28;45461;-85
2023/01/17 08:56:16;;;;;;;;;25.67;18.33;;;;;7.39;72.02;-19410.81;4954653;28;45329;-86
2023/01/17 08:58:42;;;;;;;;;24.33;20.33;;;;;7.39;71.81;-19410.81;4955930;28;45587;-86
2023/01/17 09:01:07;;;;;;;;;28.33;24.00;;;;;7.05;71.96;-19401.75;4975025;28;46070;-85
2023/01/17 09:03:33;;;;;;;;;21.00;19.33;;;;;6.79;71.98;-19394.84;4974647;28;45372;-85
2023/01/17 09:06:04;;;;;;;;;18.33;17.00;;;;;7.42;72.37;-19411.63;4975238;28;45505;-86
2023/01/17 09:08:30;;;;;;;;;20.67;18.00;;;;;7.44;72.01;-19412.03;4974876;28;45544;-86
2023/01/17 09:10:56;;;;;;;;;19.33;16.67;;;;;7.45;71.95;-19412.44;4974808;28;46097;-85
2023/01/17 09:13:21;;;;;;;;;21.67;18.00;;;;;7.47;72.41;-19412.97;4971053;27;45427;-85
2023/01/17 09:15:47;;;;;;;;;18.67;17.67;;;;;7.20;72.17;-19405.81;4965132;28;45434;-85
2023/01/17 09:18:12;;;;;;;;;25.00;20.67;;;;;7.51;72.04;-19414.06;4957935;28;45348;-85
2023/01/17 09:20:37;;;;;;;;;15.67;13.67;;;;;6.98;71.81;-19399.97;4974476;28;46339;-86
2023/01/17 09:23:03;;;;;;;;;20.00;17.00;;;;;7.51;72.19;-19413.94;4974482;28;45885;-85
2023/01/17 09:25:28;;;;;;;;;23.00;19.67;;;;;7.26;72.54;-19407.44;4939584;28;45538;-86
2023/01/17 09:27:53;;;;;;;;;21.00;18.67;;;;;7.32;71.97;-19409.06;4974923;28;45371;-86
2023/01/17 09:30:19;;;;;;;;;21.00;16.00;;;;;7.63;72.15;-19417.19;4974721;28;46435;-85
2023/01/17 09:32:51;;;;;;;;;23.33;20.00;;;;;7.51;72.46;-19413.94;4956854;28;45492;-85
2023/01/17 09:35:17;;;;;;;;;18.33;16.33;;;;;7.50;72.10;-19413.66;4974648;28;45417;-85
2023/01/17 09:37:42;;;;;;;;;22.00;18.33;;;;;7.72;72.54;-19419.47;4975429;28;45585;-86
2023/01/17 09:40:19;;;;;;;;;18.00;16.67;;;;;7.64;72.26;-19417.31;4974316;28;45866;-85
2023/01/17 09:42:49;;;;;;;;;22.67;21.67;;;;;7.81;72.28;-19422.03;4975646;28;45372;-85
2023/01/17 09:45:18;;;;;;;;;28.00;21.00;;;;;7.46;72.23;-19412.56;4970341;28;45458;-85
2023/01/17 09:47:52;;;;;;;;;22.67;18.00;;;;;7.88;72.07;-19423.66;4974223;28;45504;-85
2023/01/17 09:50:32;;;;;;;;;21.00;19.33;;;;;7.94;72.44;-19425.28;4964538;28;46306;-85
2023/01/17 09:53:01;;;;;;;;;20.67;15.00;;;;;7.79;72.42;-19421.50;4974128;28;45581;-85
2023/01/17 09:55:42;;;;;;;;;22.33;16.00;;;;;7.49;72.22;-19413.53;4974091;28;46276;-86
2023/01/17 09:58:19;;;;;;;;;21.33;16.33;;;;;8.06;72.02;-19428.53;4974618;28;45525;-85
2023/01/17 10:01:14;;;;;;;;;14.00;13.33;;;;;8.04;71.88;-19428.13;4973150;28;46198;-86
2023/01/17 10:04:24;;;;;;;;;19.33;19.33;;;;;8.11;72.12;-19429.91;4974164;28;45401;-85
2023/01/17 10:06:52;;;;;;;;;16.33;14.67;;;;;8.14;71.79;-19430.69;5014076;28;45474;-85
2023/01/17 10:09:28;;;;;;;;;20.33;15.67;;;;;8.13;72.40;-19430.44;5013769;28;45457;-85
2023/01/17 10:12:20;;;;;;;;;14.67;14.67;;;;;8.14;71.90;-19430.69;5015241;28;46105;-85
2023/01/17 10:15:23;;;;;;;;;24.00;17.33;;;;;8.17;71.77;-19431.38;5015288;28;45657;-86
2023/01/17 10:18:15;;;;;;;;;19.33;15.33;;;;;8.21;72.13;-19432.47;5014342;28;45684;-85
2023/01/17 10:20:58;;;;;;;;;16.33;14.00;;;;;7.89;72.28;-19423.94;4955169;28;45430;-85
2023/01/17 10:23:38;;;;;;;;;17.00;14.00;;;;;8.27;72.09;-19434.09;4953864;28;46270;-86
2023/01/17 10:26:24;;;;;;;;;16.33;15.33;;;;;8.14;71.90;-19430.56;4954888;28;45529;-86
2023/01/17 10:28:52;;;;;;;;;19.33;14.67;;;;;8.14;72.17;-19430.69;4954964;28;45497;-86
2023/01/17 10:31:29;;;;;;;;;16.67;14.00;;;;;8.11;72.00;-19429.91;4954969;28;45934;-86
2023/01/17 10:34:12;;;;;;;;;15.67;13.67;;;;;8.41;71.61;-19437.88;4954608;28;45595;-86
2023/01/17 10:36:41;;;;;;;;;15.00;11.33;;;;;8.00;71.73;-19427.06;4954565;28;45832;-85
2023/01/17 10:39:22;;;;;;;;;13.67;13.00;;;;;8.50;71.82;-19440.19;4951126;28;45949;-86
2023/01/17 10:42:18;;;;;;;;;15.00;15.00;;;;;8.43;71.39;-19438.28;4955340;28;45902;-85
2023/01/17 10:44:55;;;;;;;;;15.00;13.00;;;;;8.57;71.20;-19442.06;4988941;28;45882;-86
2023/01/17 10:47:23;;;;;;;;;19.33;14.00;;;;;8.61;71.25;-19443.16;4993690;28;45523;-86
2023/01/17 10:49:56;;;;;;;;;9.00;8.33;;;;;7.85;71.30;-19423.00;4977120;28;45506;-85
2023/01/17 10:52:27;;;;;;;;;13.67;12.00;;;;;8.66;71.40;-19444.50;4976098;28;45495;-86
2023/01/17 10:55:04;;;;;;;;;17.33;14.33;;;;;8.08;71.50;-19429.09;4993775;28;46009;-86
2023/01/17 10:57:40;;;;;;;;;15.33;15.33;;;;;8.74;71.23;-19446.41;4983327;28;45427;-85
2023/01/17 11:00:29;;;;;;;;;16.33;15.00;;;;;8.75;71.14;-19446.78;4973838;28;45397;-86
2023/01/17 11:02:54;;;;;;;;;17.00;14.67;;;;;8.80;71.03;-19448.00;4973771;28;45424;-86
2023/01/17 11:05:27;;;;;;;;;17.00;15.00;;;;;8.80;70.98;-19448.16;4974512;28;46159;-86
2023/01/17 11:08:13;;;;;;;;;15.00;14.00;;;;;8.74;71.04;-19446.53;4975437;28;45508;-85
2023/01/17 11:10:48;;;;;;;;;20.00;16.00;;;;;8.56;70.82;-19441.78;4973423;28;45819;-85
2023/01/17 11:13:22;;;;;;;;;14.00;11.67;;;;;8.84;70.47;-19449.09;4973625;28;45491;-86
2023/01/17 11:15:49;;;;;;;;;12.00;10.67;;;;;8.75;70.29;-19446.66;4972947;28;45573;-85
2023/01/17 11:18:20;;;;;;;;;16.67;14.33;;;;;8.32;70.50;-19435.44;4974425;28;45452;-85
2023/01/17 11:20:47;;;;;;;;;15.33;13.00;;;;;8.58;70.57;-19442.34;4972622;28;45403;-85
2023/01/17 11:23:30;;;;;;;;;15.33;13.00;;;;;8.81;70.19;-19448.41;4981184;28;45330;-86
2023/01/17 11:25:59;;;;;;;;;19.33;15.67;;;;;8.83;70.23;-19448.81;4980674;28;46553;-86
2023/01/17 11:28:29;;;;;;;;;15.33;13.00;;;;;8.82;70.33;-19448.56;4985849;28;45459;-85
2023/01/17 11:31:06;;;;;;;;;11.67;11.67;;;;;8.54;70.52;-19441.13;4954088;28;45461;-85
2023/01/17 11:33:44;;;;;;;;;14.33;12.00;;;;;8.79;70.52;-19447.88;4960034;28;45485;-86
2023/01/17 11:36:31;;;;;;;;;16.00;13.00;;;;;8.69;70.41;-19445.19;4972962;28;47174;-86
2023/01/17 11:38:58;;;;;;;;;16.67;15.00;;;;;8.79;70.50;-19447.75;4973200;28;45492;-85
2023/01/17 11:41:26;;;;;;;;;19.67;13.00;;;;;7.67;70.42;-19418.13;4975487;28;45572;-86
2023/01/17 11:43:57;;;;;;;;;12.33;12.33;;;;;8.72;70.80;-19445.84;4973366;28;45417;-86
2023/01/17 11:46:23;;;;;;;;;15.00;13.33;;;;;8.74;70.51;-19446.53;4973246;28;45449;-85
2023/01/17 11:48:51;;;;;;;;;13.67;12.67;;;;;8.74;70.32;-19446.53;4970752;28;45865;-86
2023/01/17 11:51:32;;;;;;;;;17.00;12.00;;;;;8.28;70.77;-19434.22;4995290;28;45485;-86
2023/01/17 11:54:07;;;;;;;;;16.67;11.33;;;;;8.71;70.52;-19445.72;4982601;28;45560;-86
2023/01/17 11:56:35;;;;;;;;;12.33;12.33;;;;;8.71;70.81;-19445.72;4980003;28;45773;-86
2023/01/17 11:59:22;;;;;;;;;15.33;12.33;;;;;8.30;70.72;-19434.91;4972606;28;45433;-85
2023/01/17 12:01:57;;;;;;;;;17.67;12.67;;;;;8.75;70.93;-19446.78;4973018;28;45438;-85
2023/01/17 12:04:29;;;;;;;;;12.33;12.00;;;;;8.76;70.71;-19447.06;4977972;28;45386;-85
2023/01/17 12:07:24;;;;;;;;;19.00;18.00;;;;;8.54;70.80;-19441.25;4985267;28;45485;-85
2023/01/17 12:10:04;;;;;;;;;12.00;9.33;;;;;8.76;70.55;-19446.94;4985839;28;45557;-85
2023/01/17 12:15:50;;;;;;;;;14.67;11.67;;;;;8.74;71.02;-19446.41;4983550;28;45493;-86
2023/01/17 12:18:32;;;;;;;;;15.33;11.00;;;;;8.75;70.62;-19446.66;4962827;28;47242;-86
2023/01/17 12:21:09;;;;;;;;;11.00;9.67;;;;;8.76;70.20;-19446.94;4972829;28;45613;-86
2023/01/17 12:24:16;;;;;;;;;10.67;10.67;;;;;8.53;70.07;-19441.00;4972323;28;45774;-86
2023/01/17 12:26:57;;;;;;;;;16.00;10.33;;;;;8.74;70.41;-19446.41;4961672;28;45671;-86
2023/01/17 12:29:50;;;;;;;;;12.67;11.00;;;;;8.71;69.78;-19445.72;4976706;28;45485;-86
2023/01/17 12:33:00;;;;;;;;;57.25;44.75;;;;;8.73;70.06;-19446.13;4972036;28;46478;-86
2023/01/17 12:35:41;;;;;;;;;126.25;112.50;;;;;8.74;69.95;-19446.53;4969515;28;45748;-86
2023/01/17 12:38:17;;;;;;;;;14.00;9.00;;;;;8.35;70.00;-19436.13;4975680;28;45375;-87
2023/01/17 12:40:52;;;;;;;;;10.33;7.33;;;;;8.37;69.67;-19436.66;4974839;28;47309;-87
2023/01/17 12:43:24;;;;;;;;;11.33;8.00;;;;;8.41;69.41;-19437.75;4974292;28;45552;-85
2023/01/17 12:45:51;;;;;;;;;10.67;10.67;;;;;7.96;69.60;-19425.84;4988074;28;45551;-86
2023/01/17 12:48:18;;;;;;;;;16.33;15.33;;;;;8.78;69.19;-19447.63;4968513;28;45430;-86
2023/01/17 12:50:53;;;;;;;;;9.33;8.33;;;;;8.78;69.30;-19447.47;4955729;28;46128;-86
2023/01/17 12:53:25;;;;;;;;;11.00;8.33;;;;;8.76;69.21;-19446.94;4955655;28;45415;-86
2023/01/17 12:56:04;;;;;;;;;8.00;8.00;;;;;8.75;69.27;-19446.78;4969038;28;45359;-86
2023/01/17 12:58:38;;;;;;;;;7.67;7.00;;;;;8.36;69.06;-19436.38;4974704;28;45505;-87
2023/01/17 13:01:14;;;;;;;;;9.33;7.33;;;;;8.72;69.31;-19445.84;4974926;28;45490;-86